createdAt,value
2018-08-27T00:00:16.135Z,3.20
2018-08-27T00:02:44.927Z,3.57
2018-08-27T00:05:13.920Z,3.43
2018-08-27T00:07:42.546Z,2.80
2018-08-27T00:10:11.080Z,3.13
2018-08-27T00:12:40.182Z,3.50
2018-08-27T00:15:09.016Z,2.80
2018-08-27T00:17:37.791Z,3.47
2018-08-27T00:20:06.541Z,3.40
2018-08-27T00:22:36.629Z,3.20
2018-08-27T00:25:06.843Z,3.50
2018-08-27T00:27:36.719Z,3.23
2018-08-27T00:30:05.813Z,3.10
2018-08-27T00:32:36.299Z,3.30
2018-08-27T00:35:08.134Z,3.30
2018-08-27T00:37:38.220Z,4.07
2018-08-27T00:40:06.987Z,2.87
2018-08-27T00:42:35.989Z,3.13
2018-08-27T00:45:05.592Z,3.20
2018-08-27T00:47:34.927Z,4.00
2018-08-27T00:50:03.589Z,2.97
2018-08-27T00:52:32.498Z,4.23
2018-08-27T00:55:01.417Z,3.37
2018-08-27T00:57:30.028Z,3.43
2018-08-27T00:59:58.781Z,3.23
2018-08-27T01:02:27.471Z,3.10
2018-08-27T01:04:56.817Z,3.40
2018-08-27T01:07:25.357Z,3.07
2018-08-27T01:10:00.516Z,3.80
2018-08-27T01:12:29.025Z,3.87
2018-08-27T01:14:57.838Z,3.20
2018-08-27T01:17:26.523Z,3.13
2018-08-27T01:19:55.245Z,3.20
2018-08-27T01:22:23.763Z,3.87
2018-08-27T01:24:52.573Z,3.90
2018-08-27T01:27:21.725Z,3.80
2018-08-27T01:29:50.371Z,3.07
2018-08-27T01:32:26.452Z,3.27
2018-08-27T01:34:56.418Z,3.60
2018-08-27T01:37:25.480Z,3.83
2018-08-27T01:39:54.344Z,3.70
2018-08-27T01:42:23.916Z,3.13
2018-08-27T01:44:52.989Z,3.70
2018-08-27T01:47:21.536Z,3.20
2018-08-27T01:49:49.988Z,3.87
2018-08-27T01:52:18.639Z,3.37
2018-08-27T01:54:47.457Z,5.47
2018-08-27T01:57:15.981Z,4.63
2018-08-27T01:59:44.613Z,4.10
2018-08-27T02:02:13.139Z,3.77
2018-08-27T02:04:42.388Z,2.90
2018-08-27T02:07:11.365Z,2.90
2018-08-27T02:09:39.843Z,3.20
2018-08-27T02:12:08.377Z,3.20
2018-08-27T02:14:36.873Z,2.87
2018-08-27T02:17:05.839Z,3.63
2018-08-27T02:19:34.926Z,2.63
2018-08-27T02:22:04.665Z,2.80
2018-08-27T02:24:33.359Z,2.90
2018-08-27T02:27:02.256Z,3.90
2018-08-27T02:29:30.868Z,3.30
2018-08-27T02:31:59.663Z,4.33
2018-08-27T02:34:28.151Z,4.20
2018-08-27T02:36:56.736Z,4.00
2018-08-27T02:39:25.383Z,4.27
2018-08-27T02:41:53.851Z,4.20
2018-08-27T02:44:22.884Z,4.13
2018-08-27T02:46:51.659Z,4.43
2018-08-27T02:49:20.191Z,4.90
2018-08-27T02:51:48.791Z,4.40
2018-08-27T02:54:17.368Z,4.43
2018-08-27T02:56:45.986Z,4.10
2018-08-27T02:59:15.031Z,4.07
2018-08-27T03:01:43.859Z,4.07
2018-08-27T03:04:12.678Z,3.90
2018-08-27T03:06:50.549Z,2.73
2018-08-27T03:09:18.910Z,2.20
2018-08-27T03:11:47.543Z,2.53
2018-08-27T03:14:16.147Z,2.27
2018-08-27T03:16:44.669Z,2.70
2018-08-27T03:19:13.614Z,2.57
2018-08-27T03:21:42.410Z,2.40
2018-08-27T03:24:10.913Z,2.83
2018-08-27T03:26:39.430Z,3.27
2018-08-27T03:29:08.509Z,2.80
2018-08-27T03:31:37.148Z,2.63
2018-08-27T03:34:06.107Z,2.50
2018-08-27T03:36:35.009Z,2.60
2018-08-27T03:39:03.921Z,2.40
2018-08-27T03:41:32.540Z,2.73
2018-08-27T03:44:01.633Z,2.37
2018-08-27T03:46:30.677Z,2.40
2018-08-27T03:48:59.208Z,2.70
2018-08-27T03:51:27.907Z,2.50
2018-08-27T03:53:56.764Z,2.70
2018-08-27T03:56:25.267Z,2.40
2018-08-27T03:58:53.929Z,2.50
